sensor_id;sensor_type;location;lat;lon;timestamp;P1;durP1;ratioP1;P2;durP2;ratioP2
57023;SDS011;42916;54.346;18.562;2023-08-24T00:01:37;6.30;;;3.10;;
57023;SDS011;42916;54.346;18.562;2023-08-24T00:04:04;7.30;;;3.60;;
57023;SDS011;42916;54.346;18.562;2023-08-24T00:06:31;6.20;;;3.30;;
57023;SDS011;42916;54.346;18.562;2023-08-24T00:08:58;4.60;;;3.00;;
57023;SDS011;42916;54.346;18.562;2023-08-24T00:11:25;6.00;;;2.80;;
57023;SDS011;42916;54.346;18.562;2023-08-24T00:13:52;5.30;;;2.80;;
57023;SDS011;42916;54.346;18.562;2023-08-24T00:16:20;4.60;;;2.80;;
57023;SDS011;42916;54.346;18.562;2023-08-24T00:18:47;3.90;;;2.30;;
57023;SDS011;42916;54.346;18.562;2023-08-24T00:21:14;5.90;;;3.30;;
57023;SDS011;42916;54.346;18.562;2023-08-24T00:23:51;5.80;;;2.90;;
57023;SDS011;42916;54.346;18.562;2023-08-24T00:26:19;4.80;;;2.80;;
57023;SDS011;42916;54.346;18.562;2023-08-24T00:28:46;3.90;;;2.60;;
57023;SDS011;42916;54.346;18.562;2023-08-24T00:31:14;5.30;;;2.70;;
57023;SDS011;42916;54.346;18.562;2023-08-24T00:33:42;4.90;;;2.90;;
57023;SDS011;42916;54.346;18.562;2023-08-24T00:36:09;4.90;;;2.30;;
57023;SDS011;42916;54.346;18.562;2023-08-24T00:38:36;6.90;;;3.00;;
57023;SDS011;42916;54.346;18.562;2023-08-24T00:41:03;3.70;;;2.50;;
57023;SDS011;42916;54.346;18.562;2023-08-24T00:43:31;7.00;;;2.80;;
57023;SDS011;42916;54.346;18.562;2023-08-24T00:45:59;6.40;;;3.00;;
57023;SDS011;42916;54.346;18.562;2023-08-24T00:48:29;8.50;;;3.10;;
57023;SDS011;42916;54.346;18.562;2023-08-24T00:50:59;4.90;;;2.90;;
57023;SDS011;42916;54.346;18.562;2023-08-24T00:53:28;4.90;;;2.90;;
57023;SDS011;42916;54.346;18.562;2023-08-24T00:55:56;6.20;;;2.50;;
57023;SDS011;42916;54.346;18.562;2023-08-24T00:58:26;5.80;;;2.80;;
57023;SDS011;42916;54.346;18.562;2023-08-24T01:00:53;3.80;;;2.60;;
57023;SDS011;42916;54.346;18.562;2023-08-24T01:03:22;4.50;;;2.90;;
57023;SDS011;42916;54.346;18.562;2023-08-24T01:05:51;5.10;;;2.80;;
57023;SDS011;42916;54.346;18.562;2023-08-24T01:08:19;4.30;;;2.80;;
57023;SDS011;42916;54.346;18.562;2023-08-24T01:17:01;4.40;;;2.60;;
57023;SDS011;42916;54.346;18.562;2023-08-24T01:22:06;5.50;;;2.60;;
57023;SDS011;42916;54.346;18.562;2023-08-24T01:27:13;5.30;;;3.10;;
57023;SDS011;42916;54.346;18.562;2023-08-24T01:29:42;5.80;;;3.50;;
57023;SDS011;42916;54.346;18.562;2023-08-24T01:32:09;5.70;;;2.90;;
57023;SDS011;42916;54.346;18.562;2023-08-24T01:34:38;3.10;;;2.40;;
57023;SDS011;42916;54.346;18.562;2023-08-24T01:37:06;3.10;;;2.30;;
57023;SDS011;42916;54.346;18.562;2023-08-24T01:39:41;5.40;;;2.60;;
57023;SDS011;42916;54.346;18.562;2023-08-24T01:42:14;6.80;;;2.70;;
57023;SDS011;42916;54.346;18.562;2023-08-24T01:44:47;5.10;;;2.90;;
57023;SDS011;42916;54.346;18.562;2023-08-24T01:47:17;4.10;;;2.60;;
57023;SDS011;42916;54.346;18.562;2023-08-24T01:49:45;4.80;;;2.60;;
57023;SDS011;42916;54.346;18.562;2023-08-24T01:52:13;3.90;;;2.70;;
57023;SDS011;42916;54.346;18.562;2023-08-24T01:54:40;4.80;;;2.30;;
57023;SDS011;42916;54.346;18.562;2023-08-24T01:57:07;5.00;;;2.70;;
57023;SDS011;42916;54.346;18.562;2023-08-24T01:59:34;4.50;;;2.60;;
57023;SDS011;42916;54.346;18.562;2023-08-24T02:02:01;6.00;;;2.80;;
57023;SDS011;42916;54.346;18.562;2023-08-24T02:04:29;6.20;;;2.60;;
57023;SDS011;42916;54.346;18.562;2023-08-24T02:06:55;4.50;;;2.40;;
57023;SDS011;42916;54.346;18.562;2023-08-24T02:09:22;5.90;;;2.80;;
57023;SDS011;42916;54.346;18.562;2023-08-24T02:11:52;8.70;;;2.90;;
57023;SDS011;42916;54.346;18.562;2023-08-24T02:14:18;3.40;;;2.60;;
57023;SDS011;42916;54.346;18.562;2023-08-24T02:16:45;3.30;;;2.50;;
57023;SDS011;42916;54.346;18.562;2023-08-24T02:19:12;5.10;;;2.70;;
57023;SDS011;42916;54.346;18.562;2023-08-24T02:21:39;5.80;;;2.60;;
57023;SDS011;42916;54.346;18.562;2023-08-24T02:24:06;5.40;;;2.30;;
57023;SDS011;42916;54.346;18.562;2023-08-24T02:26:32;8.30;;;2.80;;
57023;SDS011;42916;54.346;18.562;2023-08-24T02:28:59;4.20;;;2.40;;
57023;SDS011;42916;54.346;18.562;2023-08-24T02:31:26;6.20;;;2.90;;
57023;SDS011;42916;54.346;18.562;2023-08-24T02:33:53;4.90;;;2.70;;
57023;SDS011;42916;54.346;18.562;2023-08-24T02:36:19;4.40;;;2.90;;
57023;SDS011;42916;54.346;18.562;2023-08-24T02:38:46;6.50;;;3.10;;
57023;SDS011;42916;54.346;18.562;2023-08-24T02:41:13;4.60;;;2.80;;
57023;SDS011;42916;54.346;18.562;2023-08-24T02:43:41;6.80;;;3.10;;
57023;SDS011;42916;54.346;18.562;2023-08-24T02:46:08;4.40;;;2.70;;
57023;SDS011;42916;54.346;18.562;2023-08-24T02:48:38;5.40;;;2.20;;
57023;SDS011;42916;54.346;18.562;2023-08-24T02:51:07;6.80;;;2.40;;
57023;SDS011;42916;54.346;18.562;2023-08-24T02:53:37;6.50;;;2.40;;
57023;SDS011;42916;54.346;18.562;2023-08-24T02:56:03;4.70;;;2.50;;
57023;SDS011;42916;54.346;18.562;2023-08-24T02:58:30;5.00;;;2.60;;
57023;SDS011;42916;54.346;18.562;2023-08-24T03:00:57;6.30;;;2.90;;
57023;SDS011;42916;54.346;18.562;2023-08-24T03:03:25;4.70;;;2.70;;
57023;SDS011;42916;54.346;18.562;2023-08-24T03:06:01;6.00;;;3.00;;
57023;SDS011;42916;54.346;18.562;2023-08-24T03:08:30;4.50;;;2.80;;
57023;SDS011;42916;54.346;18.562;2023-08-24T03:10:58;2.90;;;2.50;;
57023;SDS011;42916;54.346;18.562;2023-08-24T03:13:26;4.50;;;2.40;;
57023;SDS011;42916;54.346;18.562;2023-08-24T03:15:55;4.20;;;2.60;;
57023;SDS011;42916;54.346;18.562;2023-08-24T03:18:23;6.10;;;2.80;;
57023;SDS011;42916;54.346;18.562;2023-08-24T03:20:50;4.10;;;2.60;;
57023;SDS011;42916;54.346;18.562;2023-08-24T03:23:17;7.20;;;2.90;;
57023;SDS011;42916;54.346;18.562;2023-08-24T03:25:44;5.60;;;3.10;;
57023;SDS011;42916;54.346;18.562;2023-08-24T03:28:11;4.80;;;3.30;;
57023;SDS011;42916;54.346;18.562;2023-08-24T03:30:39;7.10;;;3.30;;
57023;SDS011;42916;54.346;18.562;2023-08-24T03:33:12;4.40;;;2.70;;
57023;SDS011;42916;54.346;18.562;2023-08-24T03:35:39;6.20;;;3.30;;
57023;SDS011;42916;54.346;18.562;2023-08-24T03:38:06;5.20;;;3.00;;
57023;SDS011;42916;54.346;18.562;2023-08-24T03:40:33;5.70;;;3.00;;
57023;SDS011;42916;54.346;18.562;2023-08-24T03:43:01;4.30;;;2.80;;
57023;SDS011;42916;54.346;18.562;2023-08-24T03:45:28;3.60;;;2.60;;
57023;SDS011;42916;54.346;18.562;2023-08-24T03:47:55;4.70;;;2.40;;
57023;SDS011;42916;54.346;18.562;2023-08-24T03:50:22;5.30;;;3.20;;
57023;SDS011;42916;54.346;18.562;2023-08-24T03:52:50;5.50;;;2.80;;
57023;SDS011;42916;54.346;18.562;2023-08-24T03:55:18;6.20;;;2.90;;
57023;SDS011;42916;54.346;18.562;2023-08-24T03:57:45;4.10;;;2.90;;
57023;SDS011;42916;54.346;18.562;2023-08-24T04:00:12;5.50;;;3.20;;
57023;SDS011;42916;54.346;18.562;2023-08-24T04:02:43;3.50;;;2.60;;
57023;SDS011;42916;54.346;18.562;2023-08-24T04:05:16;5.20;;;2.50;;
57023;SDS011;42916;54.346;18.562;2023-08-24T04:07:44;4.90;;;3.00;;
57023;SDS011;42916;54.346;18.562;2023-08-24T04:10:10;5.10;;;2.50;;
57023;SDS011;42916;54.346;18.562;2023-08-24T04:12:37;7.00;;;2.80;;
57023;SDS011;42916;54.346;18.562;2023-08-24T04:15:04;5.20;;;2.50;;
57023;SDS011;42916;54.346;18.562;2023-08-24T04:17:31;3.30;;;2.20;;
57023;SDS011;42916;54.346;18.562;2023-08-24T04:19:58;3.70;;;2.60;;
57023;SDS011;42916;54.346;18.562;2023-08-24T04:22:25;3.40;;;2.60;;
57023;SDS011;42916;54.346;18.562;2023-08-24T04:24:51;3.80;;;2.80;;
57023;SDS011;42916;54.346;18.562;2023-08-24T04:27:18;5.70;;;3.00;;
57023;SDS011;42916;54.346;18.562;2023-08-24T04:29:45;7.40;;;2.80;;
57023;SDS011;42916;54.346;18.562;2023-08-24T04:32:12;5.90;;;2.80;;
57023;SDS011;42916;54.346;18.562;2023-08-24T04:34:39;4.60;;;2.50;;
57023;SDS011;42916;54.346;18.562;2023-08-24T04:37:06;4.50;;;2.80;;
57023;SDS011;42916;54.346;18.562;2023-08-24T04:39:33;4.80;;;2.60;;
57023;SDS011;42916;54.346;18.562;2023-08-24T04:42:01;5.50;;;3.10;;
57023;SDS011;42916;54.346;18.562;2023-08-24T04:44:29;4.90;;;2.60;;
57023;SDS011;42916;54.346;18.562;2023-08-24T04:46:56;5.50;;;3.40;;
57023;SDS011;42916;54.346;18.562;2023-08-24T04:49:23;6.20;;;2.60;;
57023;SDS011;42916;54.346;18.562;2023-08-24T04:51:50;4.60;;;2.50;;
57023;SDS011;42916;54.346;18.562;2023-08-24T04:54:17;5.50;;;3.00;;
57023;SDS011;42916;54.346;18.562;2023-08-24T04:56:44;5.30;;;2.40;;
57023;SDS011;42916;54.346;18.562;2023-08-24T04:59:10;6.10;;;2.60;;
57023;SDS011;42916;54.346;18.562;2023-08-24T05:01:37;5.20;;;2.70;;
57023;SDS011;42916;54.346;18.562;2023-08-24T05:04:04;4.50;;;2.60;;
57023;SDS011;42916;54.346;18.562;2023-08-24T05:06:30;7.10;;;2.80;;
57023;SDS011;42916;54.346;18.562;2023-08-24T05:08:57;4.50;;;2.70;;
57023;SDS011;42916;54.346;18.562;2023-08-24T05:11:26;4.90;;;2.70;;
57023;SDS011;42916;54.346;18.562;2023-08-24T05:13:55;3.60;;;2.80;;
57023;SDS011;42916;54.346;18.562;2023-08-24T05:16:22;5.20;;;2.90;;
57023;SDS011;42916;54.346;18.562;2023-08-24T05:18:50;6.10;;;2.50;;
57023;SDS011;42916;54.346;18.562;2023-08-24T05:21:17;3.80;;;2.50;;
57023;SDS011;42916;54.346;18.562;2023-08-24T05:23:43;5.80;;;2.50;;
57023;SDS011;42916;54.346;18.562;2023-08-24T05:26:10;6.10;;;2.70;;
57023;SDS011;42916;54.346;18.562;2023-08-24T05:28:37;4.70;;;2.70;;
57023;SDS011;42916;54.346;18.562;2023-08-24T05:31:04;4.20;;;2.50;;
57023;SDS011;42916;54.346;18.562;2023-08-24T05:33:31;5.50;;;2.30;;
57023;SDS011;42916;54.346;18.562;2023-08-24T05:35:59;5.70;;;2.60;;
57023;SDS011;42916;54.346;18.562;2023-08-24T05:38:26;6.30;;;2.70;;
57023;SDS011;42916;54.346;18.562;2023-08-24T05:40:53;5.30;;;2.40;;
57023;SDS011;42916;54.346;18.562;2023-08-24T05:43:19;5.10;;;2.70;;
57023;SDS011;42916;54.346;18.562;2023-08-24T05:45:47;4.70;;;2.70;;
57023;SDS011;42916;54.346;18.562;2023-08-24T05:48:15;5.20;;;2.60;;
57023;SDS011;42916;54.346;18.562;2023-08-24T05:50:43;6.00;;;2.60;;
57023;SDS011;42916;54.346;18.562;2023-08-24T05:53:13;6.00;;;2.50;;
57023;SDS011;42916;54.346;18.562;2023-08-24T05:55:40;4.80;;;2.20;;
57023;SDS011;42916;54.346;18.562;2023-08-24T05:58:07;3.70;;;2.10;;
57023;SDS011;42916;54.346;18.562;2023-08-24T06:00:34;3.90;;;1.90;;
57023;SDS011;42916;54.346;18.562;2023-08-24T06:03:01;4.00;;;2.20;;
57023;SDS011;42916;54.346;18.562;2023-08-24T06:05:30;5.20;;;2.50;;
57023;SDS011;42916;54.346;18.562;2023-08-24T06:07:57;4.10;;;2.10;;
57023;SDS011;42916;54.346;18.562;2023-08-24T06:10:24;6.30;;;2.20;;
57023;SDS011;42916;54.346;18.562;2023-08-24T06:12:53;5.90;;;2.00;;
57023;SDS011;42916;54.346;18.562;2023-08-24T06:15:19;3.50;;;2.00;;
57023;SDS011;42916;54.346;18.562;2023-08-24T06:17:50;4.00;;;1.90;;
57023;SDS011;42916;54.346;18.562;2023-08-24T06:20:17;4.20;;;1.90;;
57023;SDS011;42916;54.346;18.562;2023-08-24T06:22:44;5.20;;;2.30;;
57023;SDS011;42916;54.346;18.562;2023-08-24T06:25:11;3.10;;;1.90;;
57023;SDS011;42916;54.346;18.562;2023-08-24T06:27:38;3.50;;;2.30;;
57023;SDS011;42916;54.346;18.562;2023-08-24T06:30:05;6.00;;;2.20;;
57023;SDS011;42916;54.346;18.562;2023-08-24T06:32:32;6.70;;;1.80;;
57023;SDS011;42916;54.346;18.562;2023-08-24T06:34:59;4.60;;;2.00;;
57023;SDS011;42916;54.346;18.562;2023-08-24T06:37:27;3.90;;;1.70;;
57023;SDS011;42916;54.346;18.562;2023-08-24T06:39:53;7.40;;;2.20;;
57023;SDS011;42916;54.346;18.562;2023-08-24T06:42:20;7.00;;;2.10;;
57023;SDS011;42916;54.346;18.562;2023-08-24T06:44:47;3.70;;;1.80;;
57023;SDS011;42916;54.346;18.562;2023-08-24T06:47:17;5.30;;;1.80;;
57023;SDS011;42916;54.346;18.562;2023-08-24T06:49:44;4.10;;;1.80;;
57023;SDS011;42916;54.346;18.562;2023-08-24T06:52:10;5.40;;;1.80;;
57023;SDS011;42916;54.346;18.562;2023-08-24T06:54:37;5.60;;;1.80;;
57023;SDS011;42916;54.346;18.562;2023-08-24T06:57:04;5.90;;;1.90;;
57023;SDS011;42916;54.346;18.562;2023-08-24T06:59:31;3.20;;;1.80;;
57023;SDS011;42916;54.346;18.562;2023-08-24T07:01:58;2.90;;;1.70;;
57023;SDS011;42916;54.346;18.562;2023-08-24T07:04:25;5.20;;;2.00;;
57023;SDS011;42916;54.346;18.562;2023-08-24T07:06:54;3.30;;;1.80;;
57023;SDS011;42916;54.346;18.562;2023-08-24T07:09:21;5.40;;;1.80;;
57023;SDS011;42916;54.346;18.562;2023-08-24T07:11:48;3.30;;;1.80;;
57023;SDS011;42916;54.346;18.562;2023-08-24T07:14:15;2.50;;;1.40;;
57023;SDS011;42916;54.346;18.562;2023-08-24T07:16:42;5.00;;;1.70;;
57023;SDS011;42916;54.346;18.562;2023-08-24T07:19:09;3.50;;;1.80;;
57023;SDS011;42916;54.346;18.562;2023-08-24T07:21:36;5.20;;;1.70;;
57023;SDS011;42916;54.346;18.562;2023-08-24T07:24:03;3.00;;;1.70;;
57023;SDS011;42916;54.346;18.562;2023-08-24T07:26:30;5.60;;;1.50;;
57023;SDS011;42916;54.346;18.562;2023-08-24T07:28:58;4.60;;;1.90;;
57023;SDS011;42916;54.346;18.562;2023-08-24T07:31:24;5.00;;;1.90;;
57023;SDS011;42916;54.346;18.562;2023-08-24T07:33:51;6.30;;;2.00;;
57023;SDS011;42916;54.346;18.562;2023-08-24T07:36:18;7.10;;;1.90;;
57023;SDS011;42916;54.346;18.562;2023-08-24T07:38:45;2.90;;;1.50;;
57023;SDS011;42916;54.346;18.562;2023-08-24T07:41:15;3.80;;;1.70;;
57023;SDS011;42916;54.346;18.562;2023-08-24T07:43:44;3.10;;;1.70;;
57023;SDS011;42916;54.346;18.562;2023-08-24T07:46:11;2.90;;;1.60;;
57023;SDS011;42916;54.346;18.562;2023-08-24T07:48:38;4.20;;;1.90;;
57023;SDS011;42916;54.346;18.562;2023-08-24T07:51:04;3.50;;;1.80;;
57023;SDS011;42916;54.346;18.562;2023-08-24T07:53:31;4.80;;;2.00;;
57023;SDS011;42916;54.346;18.562;2023-08-24T07:55:59;3.90;;;2.00;;
57023;SDS011;42916;54.346;18.562;2023-08-24T07:58:27;6.00;;;1.80;;
57023;SDS011;42916;54.346;18.562;2023-08-24T08:00:54;4.00;;;1.90;;
57023;SDS011;42916;54.346;18.562;2023-08-24T08:03:21;5.60;;;1.90;;
57023;SDS011;42916;54.346;18.562;2023-08-24T08:05:48;3.50;;;1.90;;
57023;SDS011;42916;54.346;18.562;2023-08-24T08:08:15;5.50;;;1.90;;
57023;SDS011;42916;54.346;18.562;2023-08-24T08:10:42;4.70;;;1.90;;
57023;SDS011;42916;54.346;18.562;2023-08-24T08:13:09;4.90;;;2.10;;
57023;SDS011;42916;54.346;18.562;2023-08-24T08:15:38;4.40;;;2.00;;
57023;SDS011;42916;54.346;18.562;2023-08-24T08:18:05;3.70;;;1.90;;
57023;SDS011;42916;54.346;18.562;2023-08-24T08:20:32;4.30;;;2.00;;
57023;SDS011;42916;54.346;18.562;2023-08-24T08:22:59;2.70;;;1.80;;
57023;SDS011;42916;54.346;18.562;2023-08-24T08:25:26;3.80;;;1.90;;
57023;SDS011;42916;54.346;18.562;2023-08-24T08:27:53;2.40;;;1.70;;
57023;SDS011;42916;54.346;18.562;2023-08-24T08:30:20;5.70;;;2.00;;
57023;SDS011;42916;54.346;18.562;2023-08-24T08:32:46;3.60;;;1.90;;
57023;SDS011;42916;54.346;18.562;2023-08-24T08:35:13;5.10;;;1.70;;
57023;SDS011;42916;54.346;18.562;2023-08-24T08:37:41;5.00;;;1.80;;
57023;SDS011;42916;54.346;18.562;2023-08-24T08:40:09;2.50;;;1.40;;
57023;SDS011;42916;54.346;18.562;2023-08-24T08:42:37;4.20;;;1.90;;
57023;SDS011;42916;54.346;18.562;2023-08-24T08:45:04;3.40;;;1.50;;
57023;SDS011;42916;54.346;18.562;2023-08-24T08:47:35;3.60;;;1.50;;
57023;SDS011;42916;54.346;18.562;2023-08-24T08:50:03;2.80;;;1.50;;
57023;SDS011;42916;54.346;18.562;2023-08-24T08:52:31;5.20;;;2.00;;
57023;SDS011;42916;54.346;18.562;2023-08-24T08:54:58;2.90;;;1.40;;
57023;SDS011;42916;54.346;18.562;2023-08-24T08:57:26;2.70;;;1.40;;
57023;SDS011;42916;54.346;18.562;2023-08-24T08:59:53;3.90;;;1.60;;
57023;SDS011;42916;54.346;18.562;2023-08-24T09:02:20;3.80;;;1.50;;
57023;SDS011;42916;54.346;18.562;2023-08-24T09:04:50;7.00;;;1.40;;
57023;SDS011;42916;54.346;18.562;2023-08-24T09:07:18;2.10;;;1.50;;
57023;SDS011;42916;54.346;18.562;2023-08-24T09:09:45;3.50;;;1.50;;
57023;SDS011;42916;54.346;18.562;2023-08-24T09:12:11;5.80;;;1.60;;
57023;SDS011;42916;54.346;18.562;2023-08-24T09:14:38;2.70;;;1.70;;
57023;SDS011;42916;54.346;18.562;2023-08-24T09:17:06;2.90;;;1.30;;
57023;SDS011;42916;54.346;18.562;2023-08-24T09:19:33;2.90;;;1.60;;
57023;SDS011;42916;54.346;18.562;2023-08-24T09:22:02;6.20;;;1.50;;
57023;SDS011;42916;54.346;18.562;2023-08-24T09:24:32;2.60;;;1.30;;
57023;SDS011;42916;54.346;18.562;2023-08-24T09:27:00;2.30;;;1.30;;
57023;SDS011;42916;54.346;18.562;2023-08-24T09:29:41;3.10;;;1.20;;
57023;SDS011;42916;54.346;18.562;2023-08-24T09:32:08;3.20;;;1.20;;
57023;SDS011;42916;54.346;18.562;2023-08-24T09:34:36;5.10;;;1.50;;
57023;SDS011;42916;54.346;18.562;2023-08-24T09:37:03;2.30;;;1.20;;
57023;SDS011;42916;54.346;18.562;2023-08-24T09:39:31;2.00;;;1.40;;
57023;SDS011;42916;54.346;18.562;2023-08-24T09:42:00;2.80;;;1.30;;
57023;SDS011;42916;54.346;18.562;2023-08-24T09:44:29;3.90;;;1.70;;
57023;SDS011;42916;54.346;18.562;2023-08-24T09:46:56;4.80;;;1.40;;
57023;SDS011;42916;54.346;18.562;2023-08-24T09:49:23;3.20;;;1.40;;
57023;SDS011;42916;54.346;18.562;2023-08-24T09:51:49;3.20;;;1.20;;
57023;SDS011;42916;54.346;18.562;2023-08-24T09:54:18;2.80;;;1.30;;
57023;SDS011;42916;54.346;18.562;2023-08-24T09:56:51;2.50;;;1.40;;
57023;SDS011;42916;54.346;18.562;2023-08-24T09:59:19;1.60;;;1.30;;
57023;SDS011;42916;54.346;18.562;2023-08-24T10:04:17;2.00;;;1.10;;
57023;SDS011;42916;54.346;18.562;2023-08-24T10:06:49;2.80;;;1.40;;
57023;SDS011;42916;54.346;18.562;2023-08-24T10:09:21;2.80;;;1.50;;
57023;SDS011;42916;54.346;18.562;2023-08-24T10:11:53;4.10;;;1.30;;
57023;SDS011;42916;54.346;18.562;2023-08-24T10:14:29;3.50;;;1.60;;
57023;SDS011;42916;54.346;18.562;2023-08-24T10:16:59;4.20;;;1.20;;
57023;SDS011;42916;54.346;18.562;2023-08-24T10:19:26;5.70;;;1.70;;
57023;SDS011;42916;54.346;18.562;2023-08-24T10:21:54;2.80;;;1.40;;
57023;SDS011;42916;54.346;18.562;2023-08-24T10:24:23;4.30;;;1.20;;
57023;SDS011;42916;54.346;18.562;2023-08-24T10:26:50;2.40;;;1.40;;
57023;SDS011;42916;54.346;18.562;2023-08-24T10:29:18;2.70;;;1.40;;
57023;SDS011;42916;54.346;18.562;2023-08-24T10:31:46;4.40;;;1.70;;
57023;SDS011;42916;54.346;18.562;2023-08-24T10:34:15;3.10;;;1.80;;
57023;SDS011;42916;54.346;18.562;2023-08-24T10:36:42;4.20;;;2.00;;
57023;SDS011;42916;54.346;18.562;2023-08-24T10:39:12;2.20;;;1.50;;
57023;SDS011;42916;54.346;18.562;2023-08-24T10:41:52;4.90;;;2.00;;
57023;SDS011;42916;54.346;18.562;2023-08-24T10:44:33;4.90;;;2.10;;
57023;SDS011;42916;54.346;18.562;2023-08-24T10:55:01;2.90;;;2.60;;
57023;SDS011;42916;54.346;18.562;2023-08-24T10:57:39;4.10;;;2.80;;
57023;SDS011;42916;54.346;18.562;2023-08-24T11:07:52;4.30;;;2.90;;
57023;SDS011;42916;54.346;18.562;2023-08-24T11:10:21;5.80;;;2.90;;
57023;SDS011;42916;54.346;18.562;2023-08-24T11:15:36;3.80;;;3.20;;
57023;SDS011;42916;54.346;18.562;2023-08-24T11:18:23;3.60;;;3.00;;
57023;SDS011;42916;54.346;18.562;2023-08-24T11:23:23;5.50;;;3.10;;
57023;SDS011;42916;54.346;18.562;2023-08-24T11:25:51;4.70;;;3.40;;
57023;SDS011;42916;54.346;18.562;2023-08-24T11:28:28;6.30;;;3.50;;
57023;SDS011;42916;54.346;18.562;2023-08-24T11:30:57;4.00;;;3.20;;
57023;SDS011;42916;54.346;18.562;2023-08-24T11:35:56;4.10;;;3.00;;
57023;SDS011;42916;54.346;18.562;2023-08-24T11:38:23;3.50;;;2.70;;
57023;SDS011;42916;54.346;18.562;2023-08-24T11:40:50;3.90;;;2.70;;
57023;SDS011;42916;54.346;18.562;2023-08-24T11:43:24;2.90;;;2.60;;
57023;SDS011;42916;54.346;18.562;2023-08-24T11:45:54;4.70;;;2.60;;
57023;SDS011;42916;54.346;18.562;2023-08-24T11:48:25;2.80;;;2.50;;
57023;SDS011;42916;54.346;18.562;2023-08-24T11:50:52;3.30;;;2.60;;
57023;SDS011;42916;54.346;18.562;2023-08-24T11:53:21;3.00;;;2.70;;
57023;SDS011;42916;54.346;18.562;2023-08-24T11:55:53;3.80;;;2.50;;
57023;SDS011;42916;54.346;18.562;2023-08-24T11:58:20;4.80;;;2.50;;
57023;SDS011;42916;54.346;18.562;2023-08-24T12:00:47;2.70;;;2.40;;
57023;SDS011;42916;54.346;18.562;2023-08-24T12:03:14;3.50;;;2.30;;
57023;SDS011;42916;54.346;18.562;2023-08-24T12:05:41;2.90;;;2.40;;
57023;SDS011;42916;54.346;18.562;2023-08-24T12:08:08;2.60;;;2.30;;
57023;SDS011;42916;54.346;18.562;2023-08-24T12:10:46;3.70;;;2.30;;
57023;SDS011;42916;54.346;18.562;2023-08-24T12:13:13;4.60;;;2.00;;
57023;SDS011;42916;54.346;18.562;2023-08-24T12:15:40;4.00;;;2.00;;
57023;SDS011;42916;54.346;18.562;2023-08-24T12:18:10;6.90;;;2.20;;
57023;SDS011;42916;54.346;18.562;2023-08-24T12:20:39;5.90;;;2.70;;
57023;SDS011;42916;54.346;18.562;2023-08-24T12:23:07;4.40;;;2.00;;
57023;SDS011;42916;54.346;18.562;2023-08-24T12:25:38;5.00;;;2.10;;
57023;SDS011;42916;54.346;18.562;2023-08-24T12:33:28;2.50;;;2.10;;
57023;SDS011;42916;54.346;18.562;2023-08-24T12:35:57;5.20;;;3.40;;
57023;SDS011;42916;54.346;18.562;2023-08-24T12:38:25;5.40;;;2.60;;
57023;SDS011;42916;54.346;18.562;2023-08-24T12:40:53;6.10;;;2.90;;
57023;SDS011;42916;54.346;18.562;2023-08-24T12:43:21;5.40;;;2.50;;
57023;SDS011;42916;54.346;18.562;2023-08-24T12:45:48;5.10;;;2.20;;
57023;SDS011;42916;54.346;18.562;2023-08-24T12:48:15;7.30;;;2.50;;
57023;SDS011;42916;54.346;18.562;2023-08-24T12:50:42;5.20;;;2.20;;
57023;SDS011;42916;54.346;18.562;2023-08-24T12:53:08;6.40;;;2.00;;
57023;SDS011;42916;54.346;18.562;2023-08-24T12:55:36;2.40;;;1.60;;
57023;SDS011;42916;54.346;18.562;2023-08-24T12:58:05;4.10;;;1.50;;
57023;SDS011;42916;54.346;18.562;2023-08-24T13:00:32;2.80;;;1.70;;
57023;SDS011;42916;54.346;18.562;2023-08-24T13:02:59;4.70;;;1.70;;
57023;SDS011;42916;54.346;18.562;2023-08-24T13:05:26;6.50;;;2.20;;
57023;SDS011;42916;54.346;18.562;2023-08-24T13:07:53;4.00;;;2.10;;
57023;SDS011;42916;54.346;18.562;2023-08-24T13:10:19;6.50;;;1.90;;
57023;SDS011;42916;54.346;18.562;2023-08-24T13:12:46;5.10;;;1.80;;
57023;SDS011;42916;54.346;18.562;2023-08-24T13:15:13;3.20;;;1.90;;
57023;SDS011;42916;54.346;18.562;2023-08-24T13:17:41;4.40;;;2.20;;
57023;SDS011;42916;54.346;18.562;2023-08-24T13:20:08;3.90;;;1.70;;
57023;SDS011;42916;54.346;18.562;2023-08-24T13:22:35;3.30;;;1.80;;
57023;SDS011;42916;54.346;18.562;2023-08-24T13:25:01;3.30;;;1.60;;
57023;SDS011;42916;54.346;18.562;2023-08-24T13:27:28;3.50;;;1.30;;
57023;SDS011;42916;54.346;18.562;2023-08-24T13:29:56;2.50;;;1.30;;
57023;SDS011;42916;54.346;18.562;2023-08-24T13:32:26;4.00;;;1.40;;
57023;SDS011;42916;54.346;18.562;2023-08-24T13:34:53;3.30;;;1.20;;
57023;SDS011;42916;54.346;18.562;2023-08-24T13:37:22;4.60;;;1.60;;
57023;SDS011;42916;54.346;18.562;2023-08-24T13:39:50;2.40;;;1.30;;
57023;SDS011;42916;54.346;18.562;2023-08-24T13:42:17;6.60;;;2.10;;
57023;SDS011;42916;54.346;18.562;2023-08-24T13:44:45;6.20;;;2.20;;
57023;SDS011;42916;54.346;18.562;2023-08-24T13:47:13;4.30;;;2.00;;
57023;SDS011;42916;54.346;18.562;2023-08-24T13:49:39;7.90;;;2.40;;
57023;SDS011;42916;54.346;18.562;2023-08-24T13:52:06;7.10;;;2.30;;
57023;SDS011;42916;54.346;18.562;2023-08-24T13:54:33;5.60;;;2.10;;
57023;SDS011;42916;54.346;18.562;2023-08-24T13:57:00;6.40;;;1.90;;
57023;SDS011;42916;54.346;18.562;2023-08-24T13:59:28;4.10;;;2.10;;
57023;SDS011;42916;54.346;18.562;2023-08-24T14:01:55;7.10;;;1.80;;
57023;SDS011;42916;54.346;18.562;2023-08-24T14:04:21;4.10;;;1.70;;
57023;SDS011;42916;54.346;18.562;2023-08-24T14:06:48;3.80;;;1.80;;
57023;SDS011;42916;54.346;18.562;2023-08-24T14:09:15;5.10;;;2.00;;
57023;SDS011;42916;54.346;18.562;2023-08-24T14:11:42;5.90;;;2.00;;
57023;SDS011;42916;54.346;18.562;2023-08-24T14:14:09;7.40;;;2.10;;
57023;SDS011;42916;54.346;18.562;2023-08-24T14:16:36;4.30;;;1.80;;
57023;SDS011;42916;54.346;18.562;2023-08-24T14:19:03;4.30;;;1.90;;
57023;SDS011;42916;54.346;18.562;2023-08-24T14:21:30;5.30;;;2.20;;
57023;SDS011;42916;54.346;18.562;2023-08-24T14:23:57;7.20;;;2.00;;
57023;SDS011;42916;54.346;18.562;2023-08-24T14:26:24;3.30;;;1.90;;
57023;SDS011;42916;54.346;18.562;2023-08-24T14:28:55;4.10;;;1.80;;
57023;SDS011;42916;54.346;18.562;2023-08-24T14:31:26;5.30;;;2.20;;
57023;SDS011;42916;54.346;18.562;2023-08-24T14:33:54;5.20;;;1.90;;
57023;SDS011;42916;54.346;18.562;2023-08-24T14:36:22;5.80;;;2.00;;
57023;SDS011;42916;54.346;18.562;2023-08-24T14:38:50;6.30;;;1.80;;
57023;SDS011;42916;54.346;18.562;2023-08-24T14:41:19;8.10;;;1.90;;
57023;SDS011;42916;54.346;18.562;2023-08-24T14:43:46;9.90;;;2.30;;
57023;SDS011;42916;54.346;18.562;2023-08-24T14:46:14;8.40;;;2.00;;
57023;SDS011;42916;54.346;18.562;2023-08-24T14:48:40;3.80;;;1.80;;
57023;SDS011;42916;54.346;18.562;2023-08-24T14:51:07;7.50;;;2.20;;
57023;SDS011;42916;54.346;18.562;2023-08-24T14:53:34;7.20;;;2.10;;
57023;SDS011;42916;54.346;18.562;2023-08-24T14:56:01;9.20;;;1.80;;
57023;SDS011;42916;54.346;18.562;2023-08-24T14:58:28;7.50;;;2.00;;
57023;SDS011;42916;54.346;18.562;2023-08-24T15:00:56;4.30;;;1.40;;
57023;SDS011;42916;54.346;18.562;2023-08-24T15:03:24;7.10;;;1.50;;
57023;SDS011;42916;54.346;18.562;2023-08-24T15:08:30;4.60;;;2.10;;
57023;SDS011;42916;54.346;18.562;2023-08-24T15:10:59;5.10;;;1.70;;
57023;SDS011;42916;54.346;18.562;2023-08-24T15:13:27;6.60;;;1.30;;
57023;SDS011;42916;54.346;18.562;2023-08-24T15:15:56;6.90;;;1.80;;
57023;SDS011;42916;54.346;18.562;2023-08-24T15:18:24;4.50;;;1.70;;
57023;SDS011;42916;54.346;18.562;2023-08-24T15:20:52;5.20;;;1.30;;
57023;SDS011;42916;54.346;18.562;2023-08-24T15:23:23;7.90;;;1.80;;